Terminal Aerodrome Forecast
Issued by NWS

Home | Current Version | Previous Version | Text Only | Print | Product List | Glossary On
Versions: 1 2 3 4 5 6 7 8 9 10 11 12 13 14 15 16 17 18 19 20 21 22 23 24 25 26 27 28
000
FTUS45 KGJT 011120
TAFMTJ
TAF
KMTJ 011120Z 0112/0212 15007KT P6SM FEW110
     FM011400 VRB03KT P6SM FEW110 SCT200
     FM012000 23008KT P6SM SCT100 BKN200
     FM020200 14006KT P6SM FEW100 SCT200=

USA.gov is the U.S. government's official web portal to all federal, state and local government web resources and services.